Time;durP1;ratioP1;P1;durP2;ratioP2;P2;SDS_P1;SDS_P2;PMS_P1;PMS_P2;Temp;Humidity;BMP_temperature;BMP_pressure;BME280_temperature;BME280_humidity;BME280_pressure;Samples;Min_cycle;Max_cycle;Signal;HPM_P1;HPM_P2
2021/04/26 00:01:25;;;;;;;14.20;3.97;;;6.80;92.40;;;;;;5013707;28;20061;-62
2021/04/26 00:03:50;;;;;;;15.05;3.63;;;6.80;92.50;;;;;;5013388;28;20064;-61
2021/04/26 00:06:16;;;;;;;17.38;3.85;;;6.80;92.60;;;;;;5013483;28;20026;-62
2021/04/26 00:08:42;;;;;;;13.50;3.47;;;6.80;92.70;;;;;;5013269;28;20077;-62
2021/04/26 00:11:07;;;;;;;14.52;3.72;;;6.80;92.80;;;;;;5013487;28;20018;-61
2021/04/26 00:13:33;;;;;;;12.13;4.15;;;6.70;92.90;;;;;;5013591;28;20314;-62
2021/04/26 00:15:59;;;;;;;11.93;3.83;;;6.60;93.20;;;;;;5013173;28;20387;-62
2021/04/26 00:18:24;;;;;;;10.73;3.67;;;6.70;93.40;;;;;;5012876;28;20025;-61
2021/04/26 00:20:50;;;;;;;17.08;3.72;;;6.70;93.40;;;;;;5012902;28;20030;-61
2021/04/26 00:23:16;;;;;;;8.57;3.17;;;6.70;93.50;;;;;;5011857;28;20029;-62
2021/04/26 00:25:41;;;;;;;14.48;3.42;;;6.60;93.60;;;;;;5012955;28;20247;-62
2021/04/26 00:28:07;;;;;;;13.48;3.20;;;6.60;93.70;;;;;;5013229;28;20042;-62
2021/04/26 00:30:33;;;;;;;12.02;3.28;;;6.60;93.80;;;;;;5011513;28;20049;-61
2021/04/26 00:32:59;;;;;;;9.18;3.28;;;6.60;93.90;;;;;;5011617;28;20038;-62
2021/04/26 00:35:25;;;;;;;13.52;3.72;;;6.60;94.00;;;;;;5011635;28;20078;-61
2021/04/26 00:37:52;;;;;;;8.40;3.42;;;6.60;94.10;;;;;;5014162;28;20423;-61
2021/04/26 00:40:19;;;;;;;18.13;3.42;;;6.60;94.10;;;;;;5015124;28;20030;-61
2021/04/26 00:42:44;;;;;;;8.25;3.15;;;6.50;94.10;;;;;;5014935;28;20033;-61
2021/04/26 00:45:14;;;;;;;10.95;3.33;;;6.60;94.20;;;;;;5013759;28;20390;-61
2021/04/26 00:47:41;;;;;;;13.45;3.50;;;6.50;94.30;;;;;;5015445;28;20029;-61
2021/04/26 00:50:10;;;;;;;10.13;3.30;;;6.50;94.40;;;;;;5015376;28;20103;-61
2021/04/26 00:52:36;;;;;;;15.27;3.17;;;6.50;94.60;;;;;;5015324;28;20118;-61
2021/04/26 00:55:03;;;;;;;13.50;3.20;;;6.40;94.60;;;;;;5014974;28;20569;-61
2021/04/26 00:57:29;;;;;;;11.27;3.10;;;6.40;94.80;;;;;;5015186;28;20038;-61
2021/04/26 00:59:55;;;;;;;14.43;2.97;;;6.40;94.80;;;;;;5013769;28;20026;-61
2021/04/26 01:02:24;;;;;;;24.23;4.13;;;6.40;94.90;;;;;;5014998;28;20105;-61
2021/04/26 01:04:50;;;;;;;18.83;3.72;;;6.40;94.90;;;;;;5014941;28;20117;-61
2021/04/26 01:07:16;;;;;;;12.15;3.35;;;6.30;95.10;;;;;;5015017;28;20041;-61
2021/04/26 01:09:42;;;;;;;15.20;3.55;;;6.30;95.20;;;;;;5013615;28;20026;-62
2021/04/26 01:12:18;;;;;;;8.43;3.28;;;6.30;95.40;;;;;;5015224;28;20057;-61
2021/04/26 01:14:48;;;;;;;19.05;3.55;;;6.30;95.50;;;;;;5014908;28;20033;-61
2021/04/26 01:17:27;;;;;;;10.55;2.75;;;6.30;95.50;;;;;;5015234;28;20030;-61
2021/04/26 01:20:41;;;;;;;11.35;3.25;;;6.20;95.70;;;;;;5014807;28;20379;-61
2021/04/26 01:23:31;;;;;;;11.70;2.72;;;6.20;95.90;;;;;;5013574;28;20029;-61
2021/04/26 01:25:57;;;;;;;16.55;3.60;;;6.20;96.10;;;;;;5014973;28;20044;-61
2021/04/26 01:28:50;;;;;;;10.55;2.95;;;6.20;96.10;;;;;;5012824;28;20036;-61
2021/04/26 01:31:20;;;;;;;12.70;3.17;;;6.20;96.20;;;;;;5014370;28;20567;-61
2021/04/26 01:33:51;;;;;;;11.07;3.28;;;6.20;96.30;;;;;;5014427;28;20253;-61
2021/04/26 01:36:21;;;;;;;18.95;3.40;;;6.10;96.30;;;;;;5013660;28;20482;-61
2021/04/26 01:38:47;;;;;;;11.20;2.90;;;6.10;96.50;;;;;;5014717;28;20052;-61
2021/04/26 01:41:15;;;;;;;13.68;3.60;;;6.10;96.50;;;;;;5013447;28;20048;-61
2021/04/26 01:43:42;;;;;;;18.92;3.47;;;6.10;96.80;;;;;;5013360;28;20018;-61
2021/04/26 01:46:11;;;;;;;12.30;3.55;;;6.10;96.70;;;;;;5013798;28;20072;-61
2021/04/26 01:48:43;;;;;;;16.13;3.72;;;6.00;96.70;;;;;;5013258;28;20018;-61
2021/04/26 01:51:10;;;;;;;17.02;3.85;;;6.00;96.80;;;;;;5013352;28;20049;-61
2021/04/26 01:53:41;;;;;;;10.52;3.17;;;6.00;97.00;;;;;;5013287;28;20092;-61
2021/04/26 01:56:09;;;;;;;12.00;3.25;;;6.00;97.10;;;;;;5012074;28;20116;-61
2021/04/26 01:58:40;;;;;;;12.52;2.97;;;6.00;97.20;;;;;;5011783;28;20041;-61
2021/04/26 02:01:06;;;;;;;12.65;3.25;;;5.90;97.40;;;;;;5013728;28;20414;-61
2021/04/26 02:03:33;;;;;;;10.80;3.35;;;5.90;97.60;;;;;;5013705;28;20030;-61
2021/04/26 02:06:00;;;;;;;10.73;3.40;;;5.90;97.70;;;;;;5013888;28;20037;-61
2021/04/26 02:08:26;;;;;;;15.10;3.70;;;5.80;97.70;;;;;;5013584;28;20030;-61
2021/04/26 02:10:52;;;;;;;16.98;3.92;;;5.90;97.60;;;;;;5013927;28;20022;-61
2021/04/26 02:13:21;;;;;;;13.35;3.42;;;5.90;97.70;;;;;;5013737;28;20379;-61
2021/04/26 02:15:49;;;;;;;10.20;3.45;;;5.90;97.60;;;;;;5013112;28;20029;-61
2021/04/26 02:18:15;;;;;;;8.43;3.28;;;5.90;97.60;;;;;;5011982;28;20430;-61
2021/04/26 02:20:40;;;;;;;14.07;3.65;;;5.90;97.50;;;;;;5012913;28;20038;-61
2021/04/26 02:23:06;;;;;;;9.25;3.40;;;5.80;97.60;;;;;;5012718;28;20407;-61
2021/04/26 02:25:32;;;;;;;21.67;4.25;;;5.80;97.70;;;;;;5012770;28;20289;-62
2021/04/26 02:27:58;;;;;;;15.90;4.00;;;5.80;97.90;;;;;;5012837;28;20037;-61
2021/04/26 02:30:23;;;;;;;17.55;3.63;;;5.70;98.30;;;;;;5012905;28;20034;-60
2021/04/26 02:32:53;;;;;;;12.45;3.75;;;5.90;97.30;;;;;;5013039;28;20116;-60
2021/04/26 02:35:43;;;;;;;13.55;4.07;;;5.70;97.50;;;;;;5013343;28;20387;-60
2021/04/26 02:38:15;;;;;;;16.30;3.70;;;5.60;97.90;;;;;;5013661;28;20045;-60
2021/04/26 02:40:53;;;;;;;8.07;3.60;;;5.60;97.70;;;;;;5013724;28;20092;-60
2021/04/26 02:43:20;;;;;;;14.02;3.63;;;5.60;97.80;;;;;;5013257;28;20076;-60
2021/04/26 02:45:58;;;;;;;18.95;4.38;;;5.50;98.10;;;;;;5013256;28;20049;-60
2021/04/26 02:48:24;;;;;;;10.48;3.80;;;5.50;98.30;;;;;;5012059;28;20112;-60
2021/04/26 02:50:54;;;;;;;13.68;3.28;;;5.50;98.30;;;;;;5012784;28;20030;-60
2021/04/26 02:53:24;;;;;;;8.95;2.95;;;5.40;98.50;;;;;;5011814;28;20076;-60
2021/04/26 02:55:52;;;;;;;12.68;3.55;;;5.40;98.70;;;;;;5013073;28;20014;-60
2021/04/26 02:58:30;;;;;;;13.93;3.30;;;5.40;98.80;;;;;;5011565;28;20365;-60
2021/04/26 03:00:56;;;;;;;10.63;3.60;;;5.40;98.80;;;;;;5010904;28;20511;-60
2021/04/26 03:03:26;;;;;;;18.10;3.75;;;5.30;98.80;;;;;;5012984;28;20048;-60
2021/04/26 03:05:53;;;;;;;16.27;3.72;;;5.40;98.70;;;;;;5011826;28;20065;-61
2021/04/26 03:08:19;;;;;;;8.38;3.10;;;5.30;98.60;;;;;;5011888;28;20080;-61
2021/04/26 03:10:46;;;;;;;8.38;3.70;;;5.40;98.50;;;;;;5012923;28;20021;-61
2021/04/26 03:13:13;;;;;;;12.07;3.20;;;5.30;98.70;;;;;;5012868;28;20017;-60
2021/04/26 03:15:39;;;;;;;13.00;3.30;;;5.40;98.60;;;;;;5012930;28;20033;-60
2021/04/26 03:18:05;;;;;;;18.10;7.45;;;5.30;98.60;;;;;;5012797;28;20026;-60
2021/04/26 03:20:34;;;;;;;11.90;3.60;;;5.30;98.60;;;;;;5012218;28;20022;-60
2021/04/26 03:23:04;;;;;;;16.70;3.95;;;5.30;98.70;;;;;;5012512;28;20454;-60
2021/04/26 03:25:30;;;;;;;14.88;4.43;;;5.30;98.70;;;;;;5012841;28;20029;-60
2021/04/26 03:27:56;;;;;;;9.43;2.97;;;5.30;98.80;;;;;;5013012;28;20079;-61
2021/04/26 03:30:26;;;;;;;8.55;2.95;;;5.30;98.80;;;;;;5011993;28;20029;-60
2021/04/26 03:32:52;;;;;;;15.02;3.80;;;5.30;98.80;;;;;;5011464;28;20026;-61
2021/04/26 03:35:20;;;;;;;10.80;3.13;;;5.30;98.70;;;;;;5012672;28;20033;-61
2021/04/26 03:37:50;;;;;;;12.73;3.60;;;5.20;98.70;;;;;;5011533;28;20018;-60
2021/04/26 03:40:19;;;;;;;9.90;3.38;;;5.20;99.00;;;;;;5011410;28;20395;-61
2021/04/26 03:42:45;;;;;;;11.05;3.83;;;5.20;98.80;;;;;;5013198;28;20028;-61
2021/04/26 03:45:14;;;;;;;14.60;3.35;;;5.20;98.70;;;;;;5012629;28;20449;-60
2021/04/26 03:47:40;;;;;;;16.38;3.97;;;5.20;98.80;;;;;;5011998;28;20034;-60
2021/04/26 03:50:06;;;;;;;12.45;4.00;;;5.20;98.90;;;;;;5010803;28;20091;-60
2021/04/26 03:52:31;;;;;;;9.80;3.22;;;5.10;99.00;;;;;;5012084;28;20069;-60
2021/04/26 03:55:00;;;;;;;18.98;7.78;;;5.10;99.00;;;;;;5012265;28;20014;-60
2021/04/26 03:57:25;;;;;;;10.00;3.58;;;5.10;99.00;;;;;;5011971;28;20034;-60
2021/04/26 03:59:51;;;;;;;8.00;3.35;;;5.10;99.00;;;;;;5010680;28;20494;-61
2021/04/26 04:02:17;;;;;;;11.38;3.95;;;5.00;99.00;;;;;;5012698;28;20030;-60
2021/04/26 04:04:42;;;;;;;12.77;4.13;;;5.10;99.20;;;;;;5012712;28;20038;-60
2021/04/26 04:07:08;;;;;;;9.15;3.70;;;5.00;99.30;;;;;;5011512;28;20037;-60
2021/04/26 04:09:34;;;;;;;17.02;4.20;;;5.00;99.40;;;;;;5012120;28;20091;-61
2021/04/26 04:11:59;;;;;;;13.07;4.15;;;4.90;99.60;;;;;;5013738;28;20526;-60
2021/04/26 04:14:25;;;;;;;13.70;4.00;;;5.00;99.80;;;;;;5016131;28;20115;-60
2021/04/26 04:16:50;;;;;;;13.57;3.88;;;5.00;99.80;;;;;;5016564;28;20018;-60
2021/04/26 04:19:16;;;;;;;11.82;4.18;;;4.90;99.90;;;;;;5015763;28;20080;-61
2021/04/26 04:21:42;;;;;;;9.55;4.25;;;4.80;99.90;;;;;;5016485;28;20040;-61
2021/04/26 04:24:08;;;;;;;17.80;4.20;;;4.80;99.90;;;;;;5014426;28;20025;-61
2021/04/26 04:26:33;;;;;;;12.60;4.05;;;4.80;99.90;;;;;;5015603;28;20088;-61
2021/04/26 04:28:59;;;;;;;12.60;4.30;;;4.70;99.90;;;;;;5015599;28;20042;-61
2021/04/26 04:31:25;;;;;;;16.15;4.65;;;4.70;99.90;;;;;;5014034;28;20018;-61
2021/04/26 04:33:51;;;;;;;12.32;4.10;;;4.80;99.90;;;;;;5015911;28;20030;-60
2021/04/26 04:36:17;;;;;;;13.60;4.90;;;4.90;99.90;;;;;;5016361;28;20029;-61
2021/04/26 04:38:42;;;;;;;13.75;4.60;;;4.90;99.90;;;;;;5014260;28;20355;-61
2021/04/26 04:41:08;;;;;;;134.90;16.30;;;4.90;99.90;;;;;;5015700;28;20033;-61
2021/04/26 04:43:34;;;;;;;19.80;6.18;;;4.90;99.90;;;;;;5015820;28;20050;-61
2021/04/26 04:45:59;;;;;;;12.30;4.25;;;5.00;99.90;;;;;;5031228;28;20022;-61
2021/04/26 04:48:25;;;;;;;18.35;5.03;;;4.80;99.90;;;;;;5015850;28;20152;-60
2021/04/26 04:50:51;;;;;;;12.00;4.15;;;4.80;99.90;;;;;;5014110;28;20053;-60
2021/04/26 04:53:17;;;;;;;10.77;3.83;;;4.80;99.90;;;;;;5015437;28;20026;-60
2021/04/26 04:55:42;;;;;;;11.10;4.15;;;4.70;99.90;;;;;;5014825;28;20032;-60
2021/04/26 04:58:08;;;;;;;14.10;4.35;;;4.80;99.90;;;;;;5015458;28;20062;-60
2021/04/26 05:00:33;;;;;;;14.38;4.93;;;4.80;99.90;;;;;;5014471;28;20042;-61
2021/04/26 05:02:59;;;;;;;15.18;5.40;;;4.80;99.90;;;;;;5014775;28;20026;-61
2021/04/26 05:05:25;;;;;;;12.82;4.82;;;4.90;99.90;;;;;;5015300;28;20038;-61
2021/04/26 05:07:50;;;;;;;9.40;4.68;;;4.90;99.90;;;;;;5015234;28;20041;-61
2021/04/26 05:10:16;;;;;;;9.85;4.93;;;4.90;99.90;;;;;;5014947;28;20030;-60
2021/04/26 05:12:42;;;;;;;27.05;5.78;;;4.90;99.90;;;;;;5013926;28;20034;-61
2021/04/26 05:15:09;;;;;;;18.02;5.25;;;4.90;99.90;;;;;;5015074;28;20014;-61
2021/04/26 05:17:35;;;;;;;15.20;5.95;;;4.90;99.90;;;;;;5014929;28;20033;-60
2021/04/26 05:20:00;;;;;;;13.07;5.63;;;4.90;99.90;;;;;;5014796;28;20030;-61
2021/04/26 05:22:26;;;;;;;16.98;5.97;;;5.00;99.90;;;;;;5014035;28;20026;-61
2021/04/26 05:24:53;;;;;;;12.88;5.75;;;5.00;99.90;;;;;;5014599;28;20018;-60
2021/04/26 05:27:19;;;;;;;11.32;5.43;;;5.00;99.90;;;;;;5014697;28;20112;-61
2021/04/26 05:29:44;;;;;;;20.42;5.95;;;5.00;99.90;;;;;;5014034;28;20498;-60
2021/04/26 05:32:10;;;;;;;15.00;4.97;;;5.10;99.90;;;;;;5014351;28;20022;-60
2021/04/26 05:34:36;;;;;;;19.23;5.38;;;5.10;99.90;;;;;;5014491;28;20057;-61
2021/04/26 05:37:01;;;;;;;11.88;5.28;;;5.10;99.80;;;;;;5014744;28;20022;-61
2021/04/26 05:39:27;;;;;;;20.85;5.65;;;5.20;99.50;;;;;;5014713;28;20033;-61
2021/04/26 05:41:53;;;;;;;16.88;5.40;;;5.20;99.40;;;;;;5013281;28;20629;-60
2021/04/26 05:44:19;;;;;;;16.20;5.78;;;5.20;99.30;;;;;;5012799;28;20407;-61
2021/04/26 05:46:44;;;;;;;17.02;5.75;;;5.30;99.40;;;;;;5013996;28;20092;-60
2021/04/26 05:49:10;;;;;;;17.25;5.38;;;5.30;99.30;;;;;;5012759;28;20033;-61
2021/04/26 05:51:35;;;;;;;9.27;4.95;;;5.40;99.20;;;;;;5024039;28;20026;-60
2021/04/26 05:54:01;;;;;;;13.13;4.80;;;5.40;99.10;;;;;;5032678;28;20018;-60
2021/04/26 05:56:27;;;;;;;23.15;5.55;;;5.50;98.70;;;;;;5026973;28;20022;-60
2021/04/26 05:58:52;;;;;;;15.27;4.60;;;5.50;98.70;;;;;;5015014;28;20506;-61
2021/04/26 06:01:18;;;;;;;14.30;4.70;;;5.60;98.60;;;;;;5026459;28;20026;-61
2021/04/26 06:03:44;;;;;;;12.25;4.50;;;5.60;98.20;;;;;;5018719;28;20025;-62
2021/04/26 06:06:10;;;;;;;14.35;4.45;;;5.60;98.40;;;;;;5027228;28;20042;-61
2021/04/26 06:08:35;;;;;;;9.18;4.43;;;5.70;98.20;;;;;;5015006;28;20040;-61
2021/04/26 06:11:01;;;;;;;9.68;4.47;;;5.80;98.10;;;;;;5015995;28;20022;-61
2021/04/26 06:13:27;;;;;;;8.65;4.40;;;5.90;97.50;;;;;;5019291;28;20100;-62
2021/04/26 06:15:53;;;;;;;15.85;4.72;;;6.00;97.50;;;;;;5023372;28;20027;-61
2021/04/26 06:18:21;;;;;;;9.07;3.92;;;6.10;97.30;;;;;;5024786;28;20080;-61
2021/04/26 06:20:49;;;;;;;12.88;4.60;;;6.20;96.50;;;;;;5018487;28;20383;-61
2021/04/26 06:23:16;;;;;;;14.40;4.70;;;6.30;96.20;;;;;;5014399;28;20053;-61
2021/04/26 06:25:43;;;;;;;10.57;4.40;;;6.50;95.90;;;;;;5023895;28;20112;-61
2021/04/26 06:28:10;;;;;;;13.13;4.88;;;6.40;95.20;;;;;;5021501;28;20368;-61
2021/04/26 06:30:38;;;;;;;15.25;5.20;;;6.30;95.70;;;;;;5020116;28;20422;-62
2021/04/26 06:33:04;;;;;;;12.55;4.93;;;6.30;96.10;;;;;;5024189;28;20033;-61
2021/04/26 06:35:30;;;;;;;10.02;4.13;;;6.30;95.90;;;;;;5015368;28;20493;-61
2021/04/26 06:37:56;;;;;;;13.73;4.78;;;6.30;95.70;;;;;;5013364;28;20098;-61
2021/04/26 06:40:22;;;;;;;15.77;4.70;;;6.40;95.70;;;;;;5018909;28;20029;-60
2021/04/26 06:42:48;;;;;;;11.20;4.43;;;6.50;95.20;;;;;;5009351;28;20400;-61
2021/04/26 06:45:21;;;;;;;11.63;4.72;;;6.60;95.20;;;;;;5005626;28;20042;-61
2021/04/26 06:47:50;;;;;;;12.55;4.82;;;6.70;94.80;;;;;;5010179;28;20032;-61
2021/04/26 06:50:18;;;;;;;14.50;4.72;;;6.70;94.70;;;;;;5015680;28;20041;-60
2021/04/26 06:52:44;;;;;;;11.57;4.97;;;6.70;95.00;;;;;;5018192;28;20021;-60
2021/04/26 06:55:10;;;;;;;12.48;4.32;;;6.80;94.80;;;;;;5009035;28;20034;-60
2021/04/26 06:57:36;;;;;;;12.40;4.57;;;6.90;94.80;;;;;;5014245;28;20521;-61
2021/04/26 07:00:04;;;;;;;9.88;4.30;;;7.00;94.20;;;;;;5010759;28;20025;-60
2021/04/26 07:02:29;;;;;;;12.50;4.57;;;7.30;93.50;;;;;;5012148;28;20038;-61
2021/04/26 07:04:55;;;;;;;10.40;4.80;;;7.40;93.20;;;;;;5016713;28;20029;-61
2021/04/26 07:07:20;;;;;;;11.10;5.18;;;7.40;93.30;;;;;;5015160;28;20030;-60
2021/04/26 07:09:46;;;;;;;10.70;4.20;;;7.50;93.00;;;;;;5009527;28;20120;-60
2021/04/26 07:12:12;;;;;;;18.17;4.47;;;8.10;92.10;;;;;;5015066;28;20060;-61
2021/04/26 07:14:37;;;;;;;14.02;4.93;;;9.40;89.90;;;;;;5017381;28;20030;-63
2021/04/26 07:17:03;;;;;;;9.40;4.60;;;11.10;83.00;;;;;;4998192;28;20083;-62
2021/04/26 07:19:28;;;;;;;10.85;4.60;;;12.50;76.30;;;;;;5007110;28;20770;-62
2021/04/26 07:21:54;;;;;;;8.35;3.63;;;14.00;68.90;;;;;;5003942;28;20042;-63
2021/04/26 07:24:20;;;;;;;11.32;3.40;;;13.60;66.90;;;;;;5009603;28;20151;-63
2021/04/26 07:26:45;;;;;;;8.07;3.35;;;13.80;65.00;;;;;;5006334;28;20037;-63
2021/04/26 07:29:11;;;;;;;11.30;3.95;;;13.40;66.20;;;;;;5008251;28;20033;-63
2021/04/26 07:31:37;;;;;;;9.93;4.70;;;14.00;65.00;;;;;;5009512;28;20515;-63
2021/04/26 07:34:02;;;;;;;7.45;3.50;;;14.40;62.70;;;;;;5004098;28;20060;-62
2021/04/26 07:36:29;;;;;;;7.60;3.92;;;15.30;59.80;;;;;;5014779;28;20057;-62
2021/04/26 07:38:57;;;;;;;10.75;4.05;;;15.60;58.30;;;;;;5009615;28;20482;-62
2021/04/26 07:41:23;;;;;;;10.20;3.88;;;15.30;58.50;;;;;;5012416;28;20033;-62
2021/04/26 07:43:49;;;;;;;11.40;3.88;;;15.10;58.50;;;;;;5003141;28;20495;-65
2021/04/26 07:46:14;;;;;;;12.65;4.25;;;14.90;59.00;;;;;;5014422;28;20030;-63
2021/04/26 07:48:40;;;;;;;6.90;3.80;;;15.10;59.50;;;;;;5014968;28;20029;-63
2021/04/26 07:51:06;;;;;;;11.85;3.63;;;15.30;58.20;;;;;;5012338;28;20505;-62
2021/04/26 07:53:32;;;;;;;14.50;4.55;;;15.90;55.80;;;;;;5012894;28;20029;-63
2021/04/26 07:55:58;;;;;;;9.05;3.72;;;15.50;56.90;;;;;;5014034;28;20103;-63
2021/04/26 07:58:24;;;;;;;7.70;4.38;;;16.10;56.50;;;;;;5013012;28;20125;-63
2021/04/26 08:00:50;;;;;;;9.00;3.83;;;15.50;56.80;;;;;;5012185;28;20037;-63
2021/04/26 08:03:16;;;;;;;11.75;4.22;;;15.90;56.90;;;;;;5015948;28;20537;-63
2021/04/26 08:05:42;;;;;;;12.52;3.78;;;16.90;55.10;;;;;;5008946;28;20044;-63
2021/04/26 08:08:08;;;;;;;12.95;3.83;;;17.80;52.20;;;;;;5012204;28;20030;-63
2021/04/26 08:10:34;;;;;;;10.23;3.45;;;17.20;51.20;;;;;;5019276;28;20056;-63
2021/04/26 08:13:00;;;;;;;10.13;3.80;;;17.00;52.70;;;;;;5015951;28;20108;-63
2021/04/26 08:15:26;;;;;;;11.73;4.35;;;17.40;51.00;;;;;;5015710;28;20104;-63
2021/04/26 08:17:52;;;;;;;7.90;3.83;;;17.20;52.00;;;;;;5017247;28;20281;-63
2021/04/26 08:20:18;;;;;;;14.57;3.97;;;17.20;51.10;;;;;;5014858;28;20033;-63
2021/04/26 08:22:44;;;;;;;11.77;3.88;;;17.80;50.90;;;;;;5016421;28;20118;-64
2021/04/26 08:25:10;;;;;;;21.55;4.53;;;17.90;49.90;;;;;;5015031;28;20035;-63
2021/04/26 08:27:36;;;;;;;18.08;4.60;;;18.00;50.10;;;;;;5017151;28;20100;-63
2021/04/26 08:30:04;;;;;;;19.67;4.50;;;18.20;49.60;;;;;;5009482;28;20104;-65
2021/04/26 08:32:30;;;;;;;9.10;3.85;;;18.00;48.50;;;;;;5015719;28;20129;-63
2021/04/26 08:34:56;;;;;;;9.80;4.10;;;17.90;49.40;;;;;;5013648;28;20472;-63
2021/04/26 08:37:21;;;;;;;7.40;4.10;;;18.10;49.60;;;;;;5011258;28;20030;-63
2021/04/26 08:39:47;;;;;;;8.68;4.10;;;17.80;48.40;;;;;;5015616;28;20517;-62
2021/04/26 08:42:16;;;;;;;12.18;4.30;;;17.40;49.30;;;;;;5019407;28;20038;-63
2021/04/26 08:44:41;;;;;;;7.70;4.28;;;17.90;48.50;;;;;;5020111;28;20037;-63
2021/04/26 08:47:08;;;;;;;9.32;3.80;;;17.70;47.90;;;;;;5021393;28;20128;-63
2021/04/26 08:49:34;;;;;;;10.27;4.22;;;18.30;47.50;;;;;;5017987;28;20025;-62
2021/04/26 08:51:59;;;;;;;9.25;4.32;;;18.00;46.90;;;;;;5016387;28;20044;-62
2021/04/26 08:54:25;;;;;;;9.40;4.05;;;18.10;47.50;;;;;;5010622;28;20026;-62
2021/04/26 08:56:51;;;;;;;9.25;4.40;;;18.10;46.30;;;;;;5010174;28;20054;-63
2021/04/26 08:59:16;;;;;;;14.40;5.20;;;17.80;47.80;;;;;;5016284;28;20125;-63
2021/04/26 09:02:02;;;;;;;15.50;9.52;;;17.90;47.70;;;;;;5014569;28;20037;-62
2021/04/26 09:04:28;;;;;;;9.63;5.03;;;18.10;46.40;;;;;;5021166;28;20429;-63
2021/04/26 09:06:59;;;;;;;8.95;4.22;;;18.00;47.00;;;;;;5015541;28;20234;-64
2021/04/26 09:09:47;;;;;;;7.45;4.25;;;17.90;47.10;;;;;;5005333;28;20033;-64
2021/04/26 09:12:22;;;;;;;12.45;4.85;;;18.20;46.30;;;;;;5010334;28;20021;-62
2021/04/26 09:14:50;;;;;;;8.95;4.38;;;17.90;47.00;;;;;;5014622;28;20442;-64
2021/04/26 09:17:38;;;;;;;11.80;4.25;;;17.40;47.20;;;;;;5013785;28;20029;-62
2021/04/26 09:20:19;;;;;;;7.60;4.25;;;17.60;46.80;;;;;;5024390;28;20029;-64
2021/04/26 09:22:47;;;;;;;10.65;4.70;;;17.70;45.60;;;;;;5025094;28;20095;-64
2021/04/26 09:25:19;;;;;;;12.07;4.53;;;17.50;46.40;;;;;;5015438;28;20509;-63
2021/04/26 09:28:18;;;;;;;7.57;4.38;;;17.40;47.20;;;;;;5014123;28;20021;-63
2021/04/26 09:30:49;;;;;;;8.45;4.30;;;18.10;45.50;;;;;;5025674;28;20526;-63
2021/04/26 09:33:20;;;;;;;8.23;4.13;;;18.40;43.00;;;;;;5014933;28;20029;-63
2021/04/26 09:36:19;;;;;;;7.93;3.80;;;18.10;44.40;;;;;;5016849;28;20080;-63
2021/04/26 09:38:48;;;;;;;7.60;3.70;;;18.10;43.90;;;;;;5016653;28;20034;-63
2021/04/26 09:41:33;;;;;;;5.93;3.97;;;18.30;43.70;;;;;;5018844;28;20029;-63
2021/04/26 09:44:01;;;;;;;9.45;4.03;;;18.40;42.20;;;;;;5019654;28;20112;-63
2021/04/26 09:46:42;;;;;;;13.38;4.32;;;17.90;42.80;;;;;;5013147;28;20029;-63
2021/04/26 09:49:18;;;;;;;9.32;4.53;;;17.90;44.00;;;;;;5017648;28;20497;-63
2021/04/26 09:51:46;;;;;;;8.25;4.00;;;18.00;43.20;;;;;;5023115;28;20029;-63
2021/04/26 09:54:12;;;;;;;8.48;3.90;;;18.20;42.80;;;;;;5017001;28;20029;-63
2021/04/26 09:56:45;;;;;;;6.43;3.75;;;17.90;44.10;;;;;;5018239;28;20390;-63
2021/04/26 09:59:14;;;;;;;8.50;3.70;;;18.30;43.10;;;;;;5011231;28;20072;-63
2021/04/26 10:01:41;;;;;;;6.93;3.75;;;18.10;42.10;;;;;;5013624;28;20041;-63
2021/04/26 10:04:10;;;;;;;8.77;4.43;;;17.90;43.00;;;;;;5012300;28;20029;-63
2021/04/26 10:06:35;;;;;;;8.55;3.83;;;17.90;43.70;;;;;;5010802;28;20032;-63
2021/04/26 10:09:04;;;;;;;12.35;4.18;;;18.20;43.50;;;;;;5003220;28;20502;-64
2021/04/26 10:11:32;;;;;;;6.40;3.33;;;18.60;44.50;;;;;;5011302;28;20034;-64
2021/04/26 10:14:09;;;;;;;9.02;4.18;;;18.70;40.50;;;;;;5015384;28;20065;-63
2021/04/26 10:17:05;;;;;;;6.50;3.20;;;18.30;41.00;;;;;;5016946;28;20030;-63
2021/04/26 10:19:35;;;;;;;5.40;3.30;;;18.70;41.00;;;;;;5018998;28;20064;-63
2021/04/26 10:22:01;;;;;;;16.05;3.85;;;18.50;42.60;;;;;;5021227;28;21371;-63
2021/04/26 10:24:29;;;;;;;7.88;3.65;;;19.10;41.10;;;;;;5013639;28;20125;-63
2021/04/26 10:27:02;;;;;;;8.35;3.58;;;19.30;41.10;;;;;;5007216;28;20034;-63
2021/04/26 10:29:33;;;;;;;;;;;19.20;40.00;;;;;;5012296;28;20036;-63
2021/04/26 10:32:02;;;;;;;15.25;3.88;;;19.30;39.80;;;;;;5019594;28;20482;-63
2021/04/26 10:34:46;;;;;;;10.93;3.80;;;18.40;41.50;;;;;;5013436;28;20018;-63
2021/04/26 10:37:15;;;;;;;7.15;4.20;;;17.70;42.60;;;;;;5018446;28;20413;-65
2021/04/26 10:40:08;;;;;;;15.40;3.80;;;18.20;42.60;;;;;;5031071;28;20812;-63
2021/04/26 10:42:36;;;;;;;16.77;3.80;;;18.80;42.20;;;;;;5017555;28;20025;-64
2021/04/26 10:45:21;;;;;;;18.58;3.90;;;19.90;38.80;;;;;;5026832;28;20033;-64
2021/04/26 10:48:10;;;;;;;12.65;3.85;;;20.10;40.30;;;;;;5015856;28;20080;-64
2021/04/26 10:50:41;;;;;;;6.68;3.17;;;20.60;39.80;;;;;;5016581;28;20665;-65
2021/04/26 10:53:09;;;;;;;10.30;3.83;;;21.10;37.30;;;;;;5015102;28;20030;-64
2021/04/26 10:55:34;;;;;;;12.57;3.55;;;21.20;35.80;;;;;;5014200;28;20076;-64
2021/04/26 10:58:03;;;;;;;9.68;3.72;;;20.50;37.50;;;;;;5011722;28;20045;-64
2021/04/26 11:00:37;;;;;;;11.13;3.83;;;19.70;38.80;;;;;;5018915;28;20390;-64
2021/04/26 11:03:06;;;;;;;12.55;4.10;;;19.80;38.90;;;;;;5020200;28;20128;-63
2021/04/26 11:05:34;;;;;;;12.43;3.88;;;19.20;39.60;;;;;;5018090;28;20033;-64
2021/04/26 11:08:10;;;;;;;10.43;4.10;;;18.90;39.00;;;;;;5015185;28;20033;-64
2021/04/26 11:10:41;;;;;;;10.35;4.00;;;19.10;40.00;;;;;;5009890;28;20025;-64
2021/04/26 11:13:35;;;;;;;8.27;3.78;;;20.10;38.40;;;;;;5019343;28;20029;-64
2021/04/26 11:16:06;;;;;;;7.20;4.05;;;20.00;38.60;;;;;;5010718;28;20029;-64
2021/04/26 11:18:33;;;;;;;7.57;3.97;;;20.10;38.20;;;;;;5016512;28;20124;-64
2021/04/26 11:20:59;;;;;;;5.63;3.70;;;20.90;37.80;;;;;;5017443;28;20367;-64
2021/04/26 11:23:47;;;;;;;8.45;4.20;;;20.00;37.50;;;;;;5021856;28;20030;-64
2021/04/26 11:26:20;;;;;;;6.88;4.03;;;20.50;37.80;;;;;;5016821;28;20037;-64
2021/04/26 11:29:01;;;;;;;6.45;4.07;;;21.10;37.00;;;;;;5010776;28;20033;-64
2021/04/26 11:31:42;;;;;;;4.68;3.85;;;21.00;36.80;;;;;;5013478;28;20148;-66
2021/04/26 11:34:11;;;;;;;8.07;4.30;;;21.40;37.30;;;;;;5023031;28;20121;-62
2021/04/26 11:36:39;;;;;;;7.03;3.40;;;21.20;35.30;;;;;;5012104;28;20032;-63
2021/04/26 11:39:07;;;;;;;8.80;4.38;;;21.20;36.70;;;;;;5012936;28;20026;-63
2021/04/26 11:41:45;;;;;;;6.55;3.50;;;21.10;36.40;;;;;;5013758;28;20018;-62
2021/04/26 11:44:11;;;;;;;8.75;4.07;;;21.00;36.20;;;;;;5022184;28;20111;-62
2021/04/26 11:46:37;;;;;;;5.70;3.90;;;20.80;36.20;;;;;;5014063;28;20080;-63
2021/04/26 11:49:22;;;;;;;6.95;3.92;;;20.60;36.20;;;;;;5017831;28;20045;-63
2021/04/26 11:51:50;;;;;;;12.32;3.53;;;20.70;36.00;;;;;;5020009;28;20022;-63
2021/04/26 11:54:19;;;;;;;9.70;3.90;;;20.40;35.80;;;;;;5014587;28;20032;-63
2021/04/26 11:57:05;;;;;;;7.30;3.80;;;20.90;35.60;;;;;;5015054;28;20022;-63
2021/04/26 11:59:30;;;;;;;8.15;3.40;;;21.10;37.30;;;;;;5014086;28;20041;-64
2021/04/26 12:01:56;;;;;;;6.43;3.63;;;22.30;35.80;;;;;;5021735;28;20335;-64
2021/04/26 12:04:39;;;;;;;9.30;3.42;;;21.80;34.20;;;;;;5018365;28;20021;-64
2021/04/26 12:07:11;;;;;;;9.88;4.15;;;20.70;35.00;;;;;;5015528;28;20041;-64
2021/04/26 12:09:38;;;;;;;13.83;4.17;;;21.10;35.60;;;;;;5019303;28;20029;-63
2021/04/26 12:12:10;;;;;;;7.75;3.85;;;21.80;34.60;;;;;;5017091;28;20478;-63
2021/04/26 12:14:42;;;;;;;9.73;4.07;;;21.70;34.90;;;;;;5017782;28;20029;-63
2021/04/26 12:17:31;;;;;;;6.97;4.15;;;21.50;33.60;;;;;;5013696;28;20032;-64
2021/04/26 12:19:58;;;;;;;9.02;3.80;;;21.90;35.00;;;;;;5022933;28;20337;-64
2021/04/26 12:22:25;;;;;;;7.50;3.60;;;21.80;33.70;;;;;;5022662;28;20144;-64
2021/04/26 12:25:00;;;;;;;5.00;4.13;;;22.20;32.80;;;;;;5019711;28;20026;-64
2021/04/26 12:27:26;;;;;;;11.70;4.88;;;22.40;32.00;;;;;;5016283;28;20022;-65
2021/04/26 12:29:52;;;;;;;7.65;4.10;;;22.20;33.30;;;;;;5011688;28;20117;-64
2021/04/26 12:32:24;;;;;;;6.57;3.70;;;21.50;34.50;;;;;;5014715;28;20179;-64
2021/04/26 12:34:58;;;;;;;10.40;4.55;;;21.50;35.90;;;;;;5021029;28;20026;-64
2021/04/26 12:37:29;;;;;;;13.68;4.07;;;22.10;34.00;;;;;;5016228;28;20047;-64
2021/04/26 12:40:23;;;;;;;4.90;3.88;;;21.80;34.40;;;;;;5020549;28;20759;-63
2021/04/26 12:42:57;;;;;;;9.00;4.35;;;22.40;33.60;;;;;;5014598;28;20030;-64
2021/04/26 12:45:26;;;;;;;11.00;4.03;;;23.10;32.60;;;;;;5019555;28;20042;-64
2021/04/26 12:48:07;;;;;;;7.60;4.47;;;22.90;32.20;;;;;;5029236;28;20151;-63
2021/04/26 12:50:37;;;;;;;10.32;4.18;;;21.60;32.80;;;;;;5018516;28;20395;-63
2021/04/26 12:53:06;;;;;;;9.75;4.50;;;22.00;33.30;;;;;;5038597;28;20025;-63
2021/04/26 12:55:32;;;;;;;4.72;4.20;;;21.80;33.10;;;;;;5016876;28;20100;-63